Time;durP1;ratioP1;P1;durP2;ratioP2;P2;SDS_P1;SDS_P2;PMS_P1;PMS_P2;Temp;Humidity;BMP_temperature;BMP_pressure;BME280_temperature;BME280_humidity;BME280_pressure;Samples;Min_cycle;Max_cycle;Signal;HPM_P1;HPM_P2
2021/11/27 00:02:02;;;;;;;33.45;23.52;;;4.60;99.90;;;;;;6184299;23;20377;-81
2021/11/27 00:04:28;;;;;;;33.75;23.17;;;4.00;99.90;;;;;;6181812;23;20020;-82
2021/11/27 00:06:53;;;;;;;32.90;22.95;;;4.50;99.90;;;;;;6182588;23;20032;-82
2021/11/27 00:09:19;;;;;;;36.90;23.85;;;4.60;99.90;;;;;;6181379;23;20464;-82
2021/11/27 00:11:45;;;;;;;35.70;24.65;;;4.10;99.90;;;;;;6184556;23;20090;-82
2021/11/27 00:14:12;;;;;;;35.00;24.80;;;4.10;99.90;;;;;;6156829;23;20120;-82
2021/11/27 00:16:38;;;;;;;30.30;22.38;;;4.10;99.90;;;;;;6157961;23;20023;-82
2021/11/27 00:19:04;;;;;;;35.67;23.52;;;4.40;99.90;;;;;;6181788;23;20016;-82
2021/11/27 00:21:30;;;;;;;33.55;23.98;;;4.10;99.90;;;;;;6158099;23;20041;-82
2021/11/27 00:23:55;;;;;;;32.28;23.33;;;4.70;99.90;;;;;;6181875;23;20024;-82
2021/11/27 00:26:22;;;;;;;34.13;24.75;;;4.20;99.90;;;;;;6182051;23;20032;-82
2021/11/27 00:28:48;;;;;;;38.05;25.30;;;4.20;99.90;;;;;;6182110;23;20066;-82
2021/11/27 00:31:23;;;;;;;33.55;23.23;;;5.00;99.90;;;;;;6184464;23;20123;-82
2021/11/27 00:33:50;;;;;;;38.58;24.95;;;4.30;99.90;;;;;;6156337;23;20096;-82
2021/11/27 00:36:16;;;;;;;32.28;23.23;;;4.20;99.90;;;;;;6182608;23;20020;-83
2021/11/27 00:38:42;;;;;;;38.15;25.00;;;4.30;99.90;;;;;;6157678;23;20013;-82
2021/11/27 00:41:08;;;;;;;38.45;25.67;;;4.30;99.90;;;;;;6184167;23;20009;-83
2021/11/27 00:43:33;;;;;;;34.30;24.90;;;4.70;99.90;;;;;;6182974;23;20066;-81
2021/11/27 00:45:59;;;;;;;38.30;25.65;;;4.20;99.90;;;;;;6183498;23;20091;-82
2021/11/27 00:48:25;;;;;;;39.10;25.33;;;4.30;99.90;;;;;;6184690;23;20017;-82
2021/11/27 00:51:09;;;;;;;38.33;25.75;;;5.00;99.90;;;;;;6183018;23;20013;-81
2021/11/27 00:53:35;;;;;;;37.38;25.35;;;4.30;99.90;;;;;;6181506;23;20140;-81
2021/11/27 00:56:02;;;;;;;42.10;25.67;;;4.30;99.90;;;;;;6182338;23;20020;-82
2021/11/27 00:58:28;;;;;;;38.88;25.88;;;4.30;99.90;;;;;;6181866;23;20096;-82
2021/11/27 01:00:57;;;;;;;38.50;26.13;;;4.30;99.90;;;;;;6181508;23;20052;-82
2021/11/27 01:03:26;;;;;;;41.50;27.45;;;4.30;99.90;;;;;;6180941;23;20127;-82
2021/11/27 01:05:52;;;;;;;39.30;26.10;;;4.30;99.90;;;;;;6181335;23;20092;-83
2021/11/27 01:08:18;;;;;;;43.60;27.25;;;4.30;99.90;;;;;;6181726;23;20013;-82
2021/11/27 01:10:58;;;;;;;44.75;27.85;;;5.00;99.90;;;;;;6181737;23;20287;-82
2021/11/27 01:13:24;;;;;;;43.05;26.63;;;5.20;99.90;;;;;;6181533;23;20025;-82
2021/11/27 01:15:50;;;;;;;41.78;27.60;;;5.00;99.90;;;;;;6156746;23;20087;-82
2021/11/27 01:18:17;;;;;;;47.05;27.38;;;4.50;99.90;;;;;;6183357;23;20015;-82
2021/11/27 01:20:53;;;;;;;43.00;28.05;;;4.30;99.90;;;;;;6183264;23;20357;-82
2021/11/27 01:23:21;;;;;;;41.53;27.55;;;4.40;99.90;;;;;;6181623;23;20027;-82
2021/11/27 01:25:46;;;;;;;44.33;28.13;;;4.80;99.90;;;;;;6181317;23;20017;-82
2021/11/27 01:28:15;;;;;;;45.47;28.02;;;4.40;99.90;;;;;;6183631;23;20046;-82
2021/11/27 01:30:43;;;;;;;44.28;28.48;;;4.90;99.90;;;;;;6157042;23;20432;-82
2021/11/27 01:33:10;;;;;;;50.78;29.20;;;5.30;99.90;;;;;;6182551;23;20009;-81
2021/11/27 01:35:35;;;;;;;47.65;28.90;;;5.20;99.90;;;;;;6181313;23;20048;-82
2021/11/27 01:38:01;;;;;;;52.78;28.95;;;4.40;99.90;;;;;;6156541;23;20040;-82
2021/11/27 01:40:27;;;;;;;46.85;29.20;;;4.40;99.90;;;;;;6156760;23;20088;-81
2021/11/27 01:42:54;;;;;;;45.72;26.75;;;5.20;99.90;;;;;;6181201;23;20100;-82
2021/11/27 01:45:24;;;;;;;48.40;29.42;;;4.40;99.90;;;;;;6181766;23;20013;-81
2021/11/27 01:48:03;;;;;;;44.22;27.35;;;4.90;99.90;;;;;;6156715;23;20016;-82
2021/11/27 01:50:34;;;;;;;43.28;27.63;;;4.40;99.90;;;;;;6156595;23;20021;-82
2021/11/27 01:53:00;;;;;;;44.75;26.75;;;4.70;99.90;;;;;;6156750;23;20017;-82
2021/11/27 01:55:28;;;;;;;43.78;27.08;;;5.20;99.90;;;;;;6181524;23;20409;-82
2021/11/27 01:57:54;;;;;;;44.58;26.08;;;5.00;99.90;;;;;;6181790;23;20055;-82
2021/11/27 02:00:24;;;;;;;46.47;25.48;;;4.50;99.90;;;;;;6181610;23;20075;-81
2021/11/27 02:02:50;;;;;;;44.72;25.45;;;4.50;99.90;;;;;;6180750;23;20013;-83
2021/11/27 02:05:16;;;;;;;39.70;24.38;;;4.50;99.90;;;;;;6182714;23;20024;-81
2021/11/27 02:07:42;;;;;;;43.28;25.30;;;5.30;99.90;;;;;;6181214;23;20019;-82
2021/11/27 02:10:10;;;;;;;44.70;25.20;;;4.50;99.90;;;;;;6183377;23;20057;-82
2021/11/27 02:12:37;;;;;;;45.13;23.65;;;4.50;99.90;;;;;;6156361;23;20314;-82
2021/11/27 02:15:04;;;;;;;32.97;21.98;;;4.80;99.90;;;;;;6180862;23;20028;-82
2021/11/27 02:17:29;;;;;;;36.97;22.88;;;4.40;99.90;;;;;;6182691;23;20052;-81
2021/11/27 02:19:55;;;;;;;38.95;22.50;;;5.10;99.90;;;;;;6155562;23;20024;-82
2021/11/27 02:22:21;;;;;;;30.90;21.25;;;4.50;99.90;;;;;;6182904;23;20061;-82
2021/11/27 02:24:47;;;;;;;34.25;21.65;;;5.30;99.90;;;;;;6181261;23;20425;-81
2021/11/27 02:27:13;;;;;;;35.78;21.70;;;5.30;99.90;;;;;;6180868;23;20032;-82
2021/11/27 02:29:39;;;;;;;33.00;21.13;;;5.10;99.90;;;;;;6182560;23;20410;-82
2021/11/27 02:32:05;;;;;;;39.53;21.27;;;5.40;99.90;;;;;;6156294;23;20079;-82
2021/11/27 02:34:31;;;;;;;42.83;23.38;;;4.50;99.90;;;;;;6180747;23;20027;-83
2021/11/27 02:37:00;;;;;;;41.17;22.92;;;5.10;99.90;;;;;;6156555;23;20013;-82
2021/11/27 02:39:26;;;;;;;38.95;22.25;;;5.10;99.90;;;;;;6182451;23;20012;-83
2021/11/27 02:41:53;;;;;;;39.20;23.27;;;4.80;99.90;;;;;;6180739;23;20317;-83
2021/11/27 02:44:25;;;;;;;33.03;20.85;;;4.50;99.90;;;;;;6182841;23;20020;-83
2021/11/27 02:46:53;;;;;;;35.03;21.23;;;4.50;99.90;;;;;;6181493;23;20016;-84
2021/11/27 02:49:19;;;;;;;36.95;22.55;;;5.00;99.90;;;;;;6180323;23;20115;-83
2021/11/27 02:51:45;;;;;;;45.00;22.10;;;4.90;99.90;;;;;;6180836;23;20115;-84
2021/11/27 02:54:12;;;;;;;44.80;23.60;;;5.40;99.90;;;;;;6180575;23;20017;-83
2021/11/27 02:56:38;;;;;;;41.50;21.67;;;4.70;99.90;;;;;;6181084;23;20020;-84
2021/11/27 02:59:15;;;;;;;36.78;23.02;;;4.50;99.90;;;;;;6180742;23;20017;-83
2021/11/27 03:01:43;;;;;;;41.97;22.88;;;4.50;99.90;;;;;;6180938;23;20084;-83
2021/11/27 03:04:09;;;;;;;35.45;22.02;;;4.90;99.90;;;;;;6179785;23;20105;-83
2021/11/27 03:06:35;;;;;;;36.28;21.92;;;5.30;99.90;;;;;;6181425;23;20023;-84
2021/11/27 03:09:03;;;;;;;39.55;21.23;;;4.90;99.90;;;;;;6182643;23;20013;-84
2021/11/27 03:11:29;;;;;;;33.60;18.95;;;5.30;99.90;;;;;;6182903;23;20039;-84
2021/11/27 03:13:55;;;;;;;32.97;18.58;;;4.50;99.90;;;;;;6180485;23;20098;-83
2021/11/27 03:16:25;;;;;;;32.88;18.38;;;4.50;99.90;;;;;;6181204;23;20377;-84
2021/11/27 03:18:51;;;;;;;36.25;19.05;;;4.60;99.90;;;;;;6155680;23;20369;-84
2021/11/27 03:21:17;;;;;;;34.88;19.20;;;4.40;99.90;;;;;;6182549;23;20017;-84
2021/11/27 03:23:43;;;;;;;37.90;19.48;;;4.50;99.90;;;;;;6180678;23;20049;-83
2021/11/27 03:26:08;;;;;;;37.10;19.88;;;4.50;99.90;;;;;;6183056;23;20016;-84
2021/11/27 03:28:34;;;;;;;29.83;18.63;;;4.70;99.90;;;;;;6181111;23;20021;-84
2021/11/27 03:31:00;;;;;;;39.42;20.13;;;5.10;99.90;;;;;;6181892;23;20092;-83
2021/11/27 03:33:25;;;;;;;36.58;19.75;;;4.40;99.90;;;;;;6182000;23;20437;-83
2021/11/27 03:35:51;;;;;;;39.13;20.58;;;5.40;99.90;;;;;;6184112;23;20009;-83
2021/11/27 03:38:17;;;;;;;40.42;20.90;;;5.10;99.90;;;;;;6182384;23;20019;-83
2021/11/27 03:40:44;;;;;;;33.03;20.02;;;4.50;99.90;;;;;;6182986;23;20013;-83
2021/11/27 03:43:10;;;;;;;41.42;20.65;;;5.00;99.90;;;;;;6182642;23;20017;-83
2021/11/27 03:45:36;;;;;;;36.10;20.48;;;4.50;99.90;;;;;;6182459;23;20009;-83
2021/11/27 03:48:10;;;;;;;36.28;20.60;;;4.70;99.90;;;;;;6184167;23;20061;-83
2021/11/27 03:50:44;;;;;;;42.30;22.83;;;4.50;99.90;;;;;;6183073;23;20083;-83
2021/11/27 03:53:15;;;;;;;44.38;23.02;;;4.40;99.90;;;;;;6183120;23;20009;-83
2021/11/27 03:56:01;;;;;;;43.72;22.92;;;5.10;99.90;;;;;;6182478;23;20318;-83
2021/11/27 03:58:27;;;;;;;43.35;22.95;;;5.20;99.90;;;;;;6182489;23;20041;-84
2021/11/27 04:00:55;;;;;;;47.45;23.50;;;5.30;99.90;;;;;;6182921;23;20024;-83
2021/11/27 04:03:21;;;;;;;44.83;23.00;;;4.50;99.90;;;;;;6183457;23;20024;-83
2021/11/27 04:05:50;;;;;;;51.55;23.75;;;5.10;99.90;;;;;;6161251;23;20013;-83
2021/11/27 04:08:17;;;;;;;44.17;23.40;;;4.50;99.90;;;;;;6159647;23;20337;-83
2021/11/27 04:10:43;;;;;;;39.83;22.30;;;4.50;99.90;;;;;;6184267;23;20013;-84
2021/11/27 04:13:08;;;;;;;37.42;22.02;;;4.50;99.90;;;;;;6157772;23;20009;-83
2021/11/27 04:15:34;;;;;;;37.15;21.67;;;5.20;99.90;;;;;;6157850;23;20326;-84
2021/11/27 04:18:01;;;;;;;47.30;23.05;;;4.90;99.90;;;;;;6154725;23;20014;-83
2021/11/27 04:20:27;;;;;;;46.13;22.25;;;4.50;99.90;;;;;;6104485;23;20017;-83
2021/11/27 04:22:53;;;;;;;44.92;22.83;;;4.50;99.90;;;;;;6128903;23;20017;-82
2021/11/27 04:25:19;;;;;;;41.17;22.83;;;5.30;99.90;;;;;;6130374;23;20009;-83
2021/11/27 04:27:45;;;;;;;41.38;22.52;;;4.60;99.90;;;;;;6128534;23;20037;-83
2021/11/27 04:30:14;;;;;;;43.10;23.52;;;4.40;99.90;;;;;;6128481;23;20053;-83
2021/11/27 04:32:41;;;;;;;36.30;21.52;;;4.50;99.90;;;;;;6104242;23;20017;-83
2021/11/27 04:35:07;;;;;;;45.95;23.38;;;4.40;99.90;;;;;;6127316;23;20020;-83
2021/11/27 04:37:32;;;;;;;52.92;22.33;;;4.40;99.90;;;;;;6127631;23;20028;-83
2021/11/27 04:39:58;;;;;;;41.25;21.60;;;4.50;99.90;;;;;;6127766;23;20018;-83
2021/11/27 04:42:27;;;;;;;38.95;22.00;;;5.40;99.90;;;;;;6128325;23;20032;-82
2021/11/27 04:44:53;;;;;;;36.03;21.85;;;5.20;99.90;;;;;;6103768;23;20017;-82
2021/11/27 04:47:18;;;;;;;44.28;22.67;;;5.10;99.90;;;;;;6125759;23;20028;-81
2021/11/27 04:49:44;;;;;;;41.10;21.83;;;5.10;99.90;;;;;;6126821;23;20493;-82
2021/11/27 04:52:10;;;;;;;43.28;22.52;;;4.90;99.90;;;;;;6126065;23;20016;-81
2021/11/27 04:54:36;;;;;;;41.33;22.50;;;4.50;99.90;;;;;;6126455;23;20076;-83
2021/11/27 04:57:04;;;;;;;47.08;22.73;;;4.50;99.90;;;;;;6126529;23;20080;-82
2021/11/27 04:59:30;;;;;;;46.70;22.67;;;4.50;99.90;;;;;;6101661;23;20092;-82
2021/11/27 05:01:56;;;;;;;44.00;23.25;;;4.50;99.90;;;;;;6101732;23;20396;-82
2021/11/27 05:04:22;;;;;;;41.78;23.23;;;4.50;99.90;;;;;;6151514;23;20017;-82
2021/11/27 05:06:48;;;;;;;45.50;21.50;;;4.50;99.90;;;;;;6126261;23;20017;-81
2021/11/27 05:09:15;;;;;;;47.38;23.33;;;4.50;99.90;;;;;;6126232;23;20041;-81
2021/11/27 05:11:41;;;;;;;38.28;21.83;;;4.50;99.90;;;;;;6126109;23;20024;-83
2021/11/27 05:14:06;;;;;;;40.85;23.33;;;4.50;99.90;;;;;;6135829;23;20048;-82
2021/11/27 05:16:32;;;;;;;38.15;22.20;;;4.50;99.90;;;;;;6180662;23;20028;-83
2021/11/27 05:18:58;;;;;;;39.13;21.60;;;4.50;99.90;;;;;;6178332;23;20072;-81
2021/11/27 05:21:27;;;;;;;42.20;21.70;;;5.30;99.90;;;;;;6153312;23;20013;-81
2021/11/27 05:23:52;;;;;;;43.38;21.63;;;4.50;99.90;;;;;;6178052;23;20024;-82
2021/11/27 05:26:18;;;;;;;38.60;20.20;;;4.50;99.90;;;;;;6180565;23;20309;-83
2021/11/27 05:28:44;;;;;;;42.47;20.75;;;4.50;99.90;;;;;;6155842;23;20100;-82
2021/11/27 05:31:13;;;;;;;35.70;20.38;;;4.50;99.90;;;;;;6181430;23;20013;-83
2021/11/27 05:36:17;;;;;;;31.42;18.48;;;4.50;99.90;;;;;;6180102;23;20084;-82
2021/11/27 05:38:48;;;;;;;33.28;19.02;;;4.50;99.90;;;;;;6156330;23;20009;-83
2021/11/27 05:41:15;;;;;;;36.58;18.08;;;4.50;99.90;;;;;;6179569;23;20056;-83
2021/11/27 05:43:41;;;;;;;40.53;20.17;;;4.50;99.90;;;;;;6153764;23;20029;-82
2021/11/27 05:46:08;;;;;;;38.03;19.45;;;4.50;99.90;;;;;;6178312;23;20024;-83
2021/11/27 05:48:34;;;;;;;37.15;19.23;;;4.40;99.90;;;;;;6155776;23;20021;-82
2021/11/27 05:51:00;;;;;;;39.95;18.98;;;4.40;99.90;;;;;;6155341;23;20024;-83
2021/11/27 05:53:25;;;;;;;33.70;17.95;;;4.50;99.90;;;;;;6153832;23;20029;-82
2021/11/27 05:55:52;;;;;;;34.17;19.13;;;4.50;99.90;;;;;;6178400;23;20013;-82
2021/11/27 05:58:19;;;;;;;35.15;19.85;;;4.50;99.90;;;;;;6129754;23;20052;-82
2021/11/27 06:00:45;;;;;;;37.30;19.48;;;4.50;99.90;;;;;;6180824;23;20021;-81
2021/11/27 06:03:12;;;;;;;42.92;19.92;;;4.50;99.90;;;;;;6180151;23;20013;-82
2021/11/27 06:05:38;;;;;;;43.67;20.08;;;4.50;99.90;;;;;;6180429;23;20075;-82
2021/11/27 06:08:04;;;;;;;42.42;20.38;;;4.50;99.90;;;;;;6155246;23;20109;-82
2021/11/27 06:10:30;;;;;;;37.95;20.30;;;4.50;99.90;;;;;;6181485;23;20017;-82
2021/11/27 06:12:56;;;;;;;36.95;20.17;;;4.50;99.90;;;;;;6180443;23;20017;-82
2021/11/27 06:15:22;;;;;;;32.88;18.80;;;4.50;99.90;;;;;;6181107;23;20088;-83
2021/11/27 06:17:48;;;;;;;39.88;20.27;;;4.50;99.90;;;;;;6180408;23;20024;-82
2021/11/27 06:20:14;;;;;;;38.67;20.08;;;4.50;99.90;;;;;;6180511;23;20386;-82
2021/11/27 06:22:40;;;;;;;42.10;20.92;;;4.50;99.90;;;;;;6179186;23;20013;-83
2021/11/27 06:25:06;;;;;;;37.17;20.85;;;3.60;99.90;;;;;;6180934;23;20076;-82
2021/11/27 06:27:32;;;;;;;37.47;21.27;;;4.50;99.90;;;;;;6155588;23;20013;-82
2021/11/27 06:29:58;;;;;;;45.47;20.45;;;4.50;99.90;;;;;;6182568;23;20084;-81
2021/11/27 06:32:25;;;;;;;40.08;20.48;;;4.50;99.90;;;;;;6180132;23;20808;-82
2021/11/27 06:34:51;;;;;;;42.65;21.60;;;4.50;99.90;;;;;;6179438;23;20016;-81
2021/11/27 06:37:21;;;;;;;47.72;22.17;;;4.50;99.90;;;;;;6178986;23;20017;-82
2021/11/27 06:39:49;;;;;;;47.67;22.33;;;4.50;99.90;;;;;;6180033;23;20092;-82
2021/11/27 06:42:16;;;;;;;48.45;23.40;;;4.50;99.90;;;;;;6154782;23;20016;-82
2021/11/27 06:44:47;;;;;;;41.55;22.95;;;4.50;99.90;;;;;;6153168;23;20021;-82
2021/11/27 06:47:16;;;;;;;52.13;24.45;;;4.40;99.90;;;;;;6180380;23;20460;-82
2021/11/27 06:49:43;;;;;;;43.50;23.27;;;4.50;99.90;;;;;;6177968;23;20005;-82
2021/11/27 06:52:10;;;;;;;47.38;22.92;;;4.60;99.90;;;;;;6154975;23;20024;-81
2021/11/27 06:54:36;;;;;;;44.05;22.98;;;4.60;99.90;;;;;;6180481;23;20021;-81
2021/11/27 06:57:02;;;;;;;52.20;23.90;;;4.60;99.90;;;;;;6154689;23;20017;-81
2021/11/27 06:59:28;;;;;;;47.47;23.98;;;4.60;99.90;;;;;;6179923;23;20362;-82
2021/11/27 07:01:53;;;;;;;47.00;23.05;;;4.60;99.90;;;;;;6177922;23;20021;-82
2021/11/27 07:04:19;;;;;;;48.38;23.85;;;4.60;99.90;;;;;;6178677;23;20456;-82
2021/11/27 07:06:46;;;;;;;46.40;23.08;;;5.30;99.90;;;;;;6157411;23;20025;-82
2021/11/27 07:09:12;;;;;;;42.25;23.02;;;5.10;99.90;;;;;;6157678;23;20383;-82
2021/11/27 07:11:37;;;;;;;46.95;24.38;;;4.60;99.90;;;;;;6181808;23;20071;-82
2021/11/27 07:14:03;;;;;;;44.20;23.20;;;5.50;99.90;;;;;;6181810;23;20083;-82
2021/11/27 07:16:29;;;;;;;45.50;23.17;;;5.00;99.90;;;;;;6182066;23;20092;-82
2021/11/27 07:18:57;;;;;;;46.13;23.30;;;5.20;99.90;;;;;;6183226;23;20021;-87
2021/11/27 07:21:23;;;;;;;55.80;24.17;;;4.60;99.90;;;;;;6156855;23;20477;-84
2021/11/27 07:23:49;;;;;;;54.63;23.75;;;4.60;99.90;;;;;;6158050;23;20023;-83
2021/11/27 07:26:15;;;;;;;51.28;24.60;;;5.30;99.90;;;;;;6158335;23;20104;-83
2021/11/27 07:28:44;;;;;;;51.92;24.52;;;5.00;99.90;;;;;;6185801;23;20051;-86
2021/11/27 07:31:30;;;;;;;53.05;23.20;;;4.60;99.90;;;;;;6159056;23;20017;-89
2021/11/27 07:33:55;;;;;;;54.85;24.45;;;5.40;99.90;;;;;;6157134;23;20087;-83
2021/11/27 07:36:22;;;;;;;47.67;23.30;;;5.50;99.90;;;;;;6184085;23;20172;-83
2021/11/27 07:38:48;;;;;;;48.40;24.60;;;5.00;99.90;;;;;;6182387;23;20091;-83
2021/11/27 07:41:13;;;;;;;55.85;25.35;;;4.60;99.90;;;;;;6157777;23;20059;-84
2021/11/27 07:43:39;;;;;;;50.00;24.08;;;5.30;99.90;;;;;;6183030;23;20028;-83
2021/11/27 07:46:05;;;;;;;53.75;26.20;;;4.70;99.90;;;;;;6182985;23;20027;-83
2021/11/27 07:48:34;;;;;;;48.38;25.25;;;5.40;99.90;;;;;;6156892;23;20106;-83
2021/11/27 07:51:01;;;;;;;44.20;23.92;;;4.70;99.90;;;;;;6157574;23;20096;-84
2021/11/27 07:53:28;;;;;;;53.33;25.10;;;5.30;99.90;;;;;;6182121;23;20013;-83
2021/11/27 07:55:54;;;;;;;45.20;24.33;;;5.20;99.90;;;;;;6182231;23;20013;-83
2021/11/27 07:58:20;;;;;;;52.75;24.35;;;4.90;99.90;;;;;;6157701;23;20017;-83
2021/11/27 08:00:46;;;;;;;57.90;24.45;;;5.30;99.90;;;;;;6182602;23;20012;-83
2021/11/27 08:03:11;;;;;;;47.03;23.63;;;5.60;99.90;;;;;;6181908;23;20457;-82
2021/11/27 08:05:37;;;;;;;70.75;26.40;;;4.80;99.90;;;;;;6157875;23;20024;-83
2021/11/27 08:08:03;;;;;;;69.68;24.10;;;4.80;99.90;;;;;;6156458;23;20044;-83
2021/11/27 08:10:29;;;;;;;44.10;22.98;;;4.80;99.90;;;;;;6183366;23;20009;-82
2021/11/27 08:12:55;;;;;;;48.03;24.08;;;5.50;99.90;;;;;;6156709;23;20013;-82
2021/11/27 08:15:20;;;;;;;47.38;24.90;;;4.80;99.90;;;;;;6181028;23;20021;-82
2021/11/27 08:17:46;;;;;;;49.67;27.85;;;4.80;99.90;;;;;;6182816;23;20112;-83
2021/11/27 08:20:12;;;;;;;53.63;26.02;;;4.90;99.90;;;;;;6182648;23;20430;-81
2021/11/27 08:22:39;;;;;;;56.38;26.63;;;5.70;99.90;;;;;;6182050;23;20017;-83
2021/11/27 08:25:05;;;;;;;50.53;25.90;;;4.90;99.90;;;;;;6157369;23;20015;-80
2021/11/27 08:27:34;;;;;;;41.33;24.20;;;4.80;99.90;;;;;;6182387;23;20021;-82
2021/11/27 08:30:03;;;;;;;42.70;24.30;;;4.80;99.90;;;;;;6184005;23;20013;-82
2021/11/27 08:32:30;;;;;;;43.88;24.90;;;4.90;99.90;;;;;;6182469;23;20020;-82
2021/11/27 08:34:56;;;;;;;45.20;23.98;;;4.90;99.90;;;;;;6157744;23;20075;-82
2021/11/27 08:37:22;;;;;;;41.20;24.08;;;5.70;99.90;;;;;;6157345;23;20075;-82
2021/11/27 08:39:48;;;;;;;40.53;24.35;;;5.00;99.90;;;;;;6182680;23;20481;-82
2021/11/27 08:42:13;;;;;;;45.13;22.30;;;5.20;99.90;;;;;;6183295;23;20020;-82
2021/11/27 08:44:39;;;;;;;45.60;23.08;;;5.00;99.90;;;;;;6182253;23;20041;-82
2021/11/27 08:47:05;;;;;;;44.00;23.23;;;4.80;99.90;;;;;;6183077;23;20020;-83
2021/11/27 08:49:32;;;;;;;39.40;22.23;;;4.80;99.90;;;;;;6181504;23;20076;-83
2021/11/27 08:51:57;;;;;;;39.55;21.95;;;4.90;99.90;;;;;;6182841;23;20013;-80
2021/11/27 08:54:23;;;;;;;38.95;20.65;;;4.80;99.90;;;;;;6156728;23;20023;-80
2021/11/27 08:56:50;;;;;;;42.72;21.23;;;4.80;99.90;;;;;;6156993;23;20059;-82
2021/11/27 08:59:15;;;;;;;35.75;19.27;;;4.80;99.90;;;;;;6157226;23;20378;-82
2021/11/27 09:01:42;;;;;;;35.58;19.73;;;5.40;99.90;;;;;;6157688;23;20041;-81
2021/11/27 09:04:08;;;;;;;33.85;19.08;;;5.30;99.90;;;;;;6180393;23;20388;-81
2021/11/27 09:06:34;;;;;;;42.60;20.10;;;4.80;99.90;;;;;;6181612;23;20013;-81
2021/11/27 09:09:00;;;;;;;34.08;19.25;;;5.00;99.90;;;;;;6181751;23;20017;-80
2021/11/27 09:11:28;;;;;;;38.60;19.02;;;4.80;99.90;;;;;;6157800;23;20350;-83
2021/11/27 09:13:55;;;;;;;18.02;9.98;;;4.80;99.90;;;;;;6156714;23;20318;-78
2021/11/27 09:16:21;;;;;;;30.55;18.92;;;5.70;99.90;;;;;;6182153;23;20019;-79
2021/11/27 09:18:48;;;;;;;28.77;17.02;;;5.80;99.90;;;;;;6181122;23;20099;-83
2021/11/27 09:21:17;;;;;;;25.70;17.35;;;5.30;99.90;;;;;;6183452;23;20013;-82
2021/11/27 09:23:42;;;;;;;25.85;16.80;;;5.20;99.90;;;;;;6182013;23;20079;-83
2021/11/27 09:26:08;;;;;;;29.27;17.92;;;5.10;99.90;;;;;;6157978;23;20063;-83
2021/11/27 09:28:34;;;;;;;33.25;17.88;;;5.00;99.90;;;;;;6157368;23;20017;-83
2021/11/27 09:31:00;;;;;;;30.95;16.35;;;5.00;99.90;;;;;;6182288;23;20056;-81
2021/11/27 09:33:29;;;;;;;30.27;17.73;;;5.00;99.90;;;;;;6182045;23;20013;-83
2021/11/27 09:35:59;;;;;;;29.90;17.55;;;5.60;99.90;;;;;;6157686;23;20187;-82
2021/11/27 09:38:25;;;;;;;34.28;18.05;;;4.90;99.90;;;;;;6182524;23;20072;-83
2021/11/27 09:40:54;;;;;;;31.55;18.25;;;4.90;99.90;;;;;;6181436;23;20017;-83
2021/11/27 09:43:20;;;;;;;30.17;17.10;;;4.90;99.90;;;;;;6157513;23;20013;-83
2021/11/27 09:45:47;;;;;;;30.95;17.25;;;4.90;99.90;;;;;;6181442;23;20044;-82
2021/11/27 09:48:13;;;;;;;28.58;16.95;;;5.50;99.90;;;;;;6157559;23;20087;-82
2021/11/27 09:50:40;;;;;;;30.23;16.83;;;5.40;99.90;;;;;;6181511;23;20040;-82
2021/11/27 09:53:06;;;;;;;32.55;17.10;;;4.90;99.90;;;;;;6182318;23;20027;-82
2021/11/27 09:55:32;;;;;;;36.90;17.45;;;5.50;99.90;;;;;;6181775;23;20040;-83
2021/11/27 09:57:57;;;;;;;31.23;16.58;;;4.90;99.90;;;;;;6181683;23;20013;-82
2021/11/27 10:00:33;;;;;;;30.00;16.92;;;5.60;99.90;;;;;;6156677;23;20025;-90
2021/11/27 10:03:00;;;;;;;30.95;17.05;;;5.00;99.90;;;;;;6181125;23;20013;-80
2021/11/27 10:05:26;;;;;;;31.08;16.33;;;5.00;99.90;;;;;;6178805;23;20106;-79
2021/11/27 10:07:52;;;;;;;28.77;15.30;;;5.10;99.90;;;;;;6181146;23;20021;-81
2021/11/27 10:10:18;;;;;;;33.00;16.40;;;5.00;99.90;;;;;;6155708;23;20016;-79
2021/11/27 10:12:44;;;;;;;28.65;14.95;;;5.10;99.90;;;;;;6179725;23;20313;-79
2021/11/27 10:15:14;;;;;;;31.27;16.80;;;5.10;99.90;;;;;;6154137;23;20017;-83
2021/11/27 10:17:40;;;;;;;30.42;15.75;;;5.10;99.90;;;;;;6154061;23;20042;-81
2021/11/27 10:20:08;;;;;;;31.65;16.15;;;5.20;99.90;;;;;;6153174;23;20041;-82
2021/11/27 10:22:46;;;;;;;27.17;15.57;;;5.10;99.90;;;;;;6178292;23;20452;-81
2021/11/27 10:25:33;;;;;;;32.05;15.57;;;5.20;99.90;;;;;;6178475;23;20017;-80
2021/11/27 10:28:08;;;;;;;27.92;14.88;;;5.90;99.90;;;;;;6154461;23;20036;-85
2021/11/27 10:31:02;;;;;;;32.47;15.93;;;5.20;99.90;;;;;;6154602;23;20024;-85
2021/11/27 10:33:30;;;;;;;30.20;15.07;;;6.10;99.90;;;;;;6154054;23;20099;-79
2021/11/27 10:36:03;;;;;;;24.75;14.55;;;5.20;99.90;;;;;;6156061;23;20013;-84
2021/11/27 10:38:35;;;;;;;30.25;14.20;;;5.20;99.90;;;;;;6180653;23;20013;-81
2021/11/27 10:41:01;;;;;;;23.25;13.90;;;5.60;99.90;;;;;;6182698;23;20023;-80
2021/11/27 10:43:31;;;;;;;23.73;14.05;;;6.00;99.90;;;;;;6158238;23;20088;-80
2021/11/27 10:45:57;;;;;;;25.25;14.00;;;5.50;99.90;;;;;;6157414;23;20013;-79
2021/11/27 10:48:24;;;;;;;24.80;13.23;;;5.50;99.90;;;;;;6182764;23;20422;-80
2021/11/27 10:50:59;;;;;;;26.60;14.00;;;5.50;99.90;;;;;;6157757;23;20024;-81
2021/11/27 10:53:37;;;;;;;24.25;12.07;;;5.50;99.90;;;;;;6182252;23;20016;-82
2021/11/27 10:56:52;;;;;;;22.65;11.38;;;5.50;99.90;;;;;;6063833;23;20017;-83
2021/11/27 10:59:18;;;;;;;24.63;11.68;;;5.00;99.90;;;;;;6014780;23;20042;-82
2021/11/27 11:02:01;;;;;;;19.15;9.73;;;5.50;99.90;;;;;;6065383;23;20074;-80
2021/11/27 11:04:27;;;;;;;18.92;9.93;;;5.80;99.90;;;;;;6016821;23;20069;-84
2021/11/27 11:07:22;;;;;;;19.23;9.32;;;6.10;99.90;;;;;;6017515;23;20015;-78
2021/11/27 11:10:09;;;;;;;19.83;8.73;;;5.60;99.90;;;;;;6017259;23;20473;-78
2021/11/27 11:12:44;;;;;;;18.48;7.55;;;5.60;99.90;;;;;;6040601;23;20436;-79
2021/11/27 11:15:22;;;;;;;12.48;6.60;;;5.60;99.90;;;;;;6040483;23;20022;-78
2021/11/27 11:18:06;;;;;;;15.77;6.45;;;5.50;99.90;;;;;;6017022;23;20015;-80
2021/11/27 11:20:32;;;;;;;11.02;5.35;;;5.50;99.90;;;;;;6041159;23;20015;-80
2021/11/27 11:23:08;;;;;;;13.88;7.40;;;5.50;99.90;;;;;;6016689;23;20474;-78
2021/11/27 11:25:37;;;;;;;12.35;8.90;;;5.50;99.90;;;;;;6040259;23;20038;-78
2021/11/27 11:28:11;;;;;;;12.05;6.60;;;5.50;99.90;;;;;;6090810;23;20030;-78
2021/11/27 11:30:39;;;;;;;7.60;5.60;;;5.50;99.90;;;;;;6044875;23;20156;-79
2021/11/27 11:33:06;;;;;;;9.23;5.13;;;5.60;99.90;;;;;;6166976;23;20013;-80
2021/11/27 11:35:34;;;;;;;9.55;6.13;;;5.60;99.90;;;;;;6180696;23;20054;-79
2021/11/27 11:38:02;;;;;;;9.77;5.03;;;5.60;99.90;;;;;;6182215;23;20019;-79
2021/11/27 11:40:29;;;;;;;8.48;5.10;;;5.60;99.90;;;;;;6157814;23;20452;-80
2021/11/27 11:42:54;;;;;;;6.47;4.30;;;5.60;99.90;;;;;;6184241;23;20084;-80
2021/11/27 11:45:20;;;;;;;9.32;4.30;;;5.70;99.90;;;;;;6182016;23;20051;-79
2021/11/27 11:47:46;;;;;;;10.93;4.43;;;5.70;99.90;;;;;;6181575;23;20017;-79
2021/11/27 11:50:21;;;;;;;6.45;3.97;;;5.80;99.90;;;;;;6181243;23;20295;-81
2021/11/27 11:52:56;;;;;;;7.35;4.50;;;5.70;99.90;;;;;;6157949;23;20017;-80
2021/11/27 11:55:22;;;;;;;;;;;6.00;99.90;;;;;;6157592;23;20436;-79
2021/11/27 11:57:54;;;;;;;6.13;4.25;;;5.70;99.90;;;;;;6132217;23;19919;-80
2021/11/27 12:00:23;;;;;;;10.18;5.55;;;5.70;99.90;;;;;;6182299;23;20051;-79
2021/11/27 12:02:49;;;;;;;10.70;5.20;;;5.60;99.90;;;;;;6182113;23;20625;-80
2021/11/27 12:05:16;;;;;;;15.52;8.45;;;5.60;99.90;;;;;;6155987;23;20087;-79
2021/11/27 12:07:42;;;;;;;17.98;8.68;;;5.60;99.90;;;;;;6182895;23;20374;-81
2021/11/27 12:10:12;;;;;;;11.48;6.85;;;5.60;99.90;;;;;;6182675;23;20115;-80
2021/11/27 12:12:41;;;;;;;14.57;6.70;;;5.60;99.90;;;;;;6183631;23;20021;-81
2021/11/27 12:15:07;;;;;;;8.82;5.65;;;5.60;99.90;;;;;;6159128;23;20127;-80
2021/11/27 12:17:53;;;;;;;14.27;6.07;;;5.80;99.90;;;;;;6182810;23;20016;-82
2021/11/27 12:20:19;;;;;;;13.25;6.25;;;5.70;99.90;;;;;;6186061;23;20023;-79
2021/11/27 12:22:45;;;;;;;12.40;9.07;;;5.70;99.90;;;;;;6205393;23;20024;-80
2021/11/27 12:25:26;;;;;;;18.92;9.95;;;5.70;99.90;;;;;;6179536;23;20060;-80
2021/11/27 12:28:09;;;;;;;12.82;8.10;;;5.70;99.90;;;;;;6159224;23;20013;-81
2021/11/27 12:30:44;;;;;;;95.38;52.80;;;5.60;99.90;;;;;;6158728;23;20103;-81
2021/11/27 12:33:40;;;;;;;17.27;9.90;;;5.60;99.90;;;;;;6159741;23;20087;-80
2021/11/27 12:36:07;;;;;;;7.47;6.15;;;5.60;99.90;;;;;;6157722;23;20152;-78
2021/11/27 12:38:33;;;;;;;10.82;7.45;;;5.60;99.90;;;;;;6157417;23;20117;-78
2021/11/27 12:40:59;;;;;;;11.38;6.47;;;5.60;99.90;;;;;;6157666;23;20013;-78
2021/11/27 12:43:26;;;;;;;7.57;6.05;;;5.60;99.90;;;;;;6157750;23;20101;-81
2021/11/27 12:45:56;;;;;;;9.75;6.32;;;5.60;99.90;;;;;;6158372;23;20095;-81